sensor_id;sensor_type;location;lat;lon;timestamp;P1;durP1;ratioP1;P2;durP2;ratioP2
69854;SDS011;57146;48.140;16.304;2022-12-18T00:01:33;13.93;;;4.35;;
69854;SDS011;57146;48.140;16.304;2022-12-18T00:04:02;17.20;;;4.90;;
69854;SDS011;57146;48.140;16.304;2022-12-18T00:06:32;17.65;;;5.20;;
69854;SDS011;57146;48.140;16.304;2022-12-18T00:08:59;14.73;;;4.63;;
69854;SDS011;57146;48.140;16.304;2022-12-18T00:11:28;14.60;;;4.28;;
69854;SDS011;57146;48.140;16.304;2022-12-18T00:13:57;16.13;;;4.80;;
69854;SDS011;57146;48.140;16.304;2022-12-18T00:16:26;16.30;;;4.90;;
69854;SDS011;57146;48.140;16.304;2022-12-18T00:18:55;12.85;;;4.20;;
69854;SDS011;57146;48.140;16.304;2022-12-18T00:21:24;14.25;;;4.50;;
69854;SDS011;57146;48.140;16.304;2022-12-18T00:23:53;13.95;;;4.80;;
69854;SDS011;57146;48.140;16.304;2022-12-18T00:26:25;14.38;;;4.68;;
69854;SDS011;57146;48.140;16.304;2022-12-18T00:29:02;13.83;;;4.50;;
69854;SDS011;57146;48.140;16.304;2022-12-18T00:31:34;13.18;;;4.35;;
69854;SDS011;57146;48.140;16.304;2022-12-18T00:34:01;14.20;;;4.30;;
69854;SDS011;57146;48.140;16.304;2022-12-18T00:36:30;12.75;;;4.18;;
69854;SDS011;57146;48.140;16.304;2022-12-18T00:38:59;13.95;;;4.35;;
69854;SDS011;57146;48.140;16.304;2022-12-18T00:41:27;11.60;;;3.83;;
69854;SDS011;57146;48.140;16.304;2022-12-18T00:43:55;12.40;;;4.07;;
69854;SDS011;57146;48.140;16.304;2022-12-18T00:46:22;13.23;;;4.10;;
69854;SDS011;57146;48.140;16.304;2022-12-18T00:48:49;12.27;;;4.18;;
69854;SDS011;57146;48.140;16.304;2022-12-18T00:51:16;13.75;;;4.78;;
69854;SDS011;57146;48.140;16.304;2022-12-18T00:53:43;13.23;;;3.93;;
69854;SDS011;57146;48.140;16.304;2022-12-18T00:56:10;12.38;;;4.30;;
69854;SDS011;57146;48.140;16.304;2022-12-18T00:58:37;13.55;;;4.00;;
69854;SDS011;57146;48.140;16.304;2022-12-18T01:01:04;11.65;;;3.95;;
69854;SDS011;57146;48.140;16.304;2022-12-18T01:03:33;15.07;;;4.60;;
69854;SDS011;57146;48.140;16.304;2022-12-18T01:06:09;12.13;;;3.67;;
69854;SDS011;57146;48.140;16.304;2022-12-18T01:08:38;11.43;;;3.63;;
69854;SDS011;57146;48.140;16.304;2022-12-18T01:11:09;12.13;;;4.00;;
69854;SDS011;57146;48.140;16.304;2022-12-18T01:13:40;12.98;;;4.20;;
69854;SDS011;57146;48.140;16.304;2022-12-18T01:16:08;12.60;;;3.92;;
69854;SDS011;57146;48.140;16.304;2022-12-18T01:18:37;12.23;;;3.73;;
69854;SDS011;57146;48.140;16.304;2022-12-18T01:21:11;13.10;;;3.28;;
69854;SDS011;57146;48.140;16.304;2022-12-18T01:23:40;11.60;;;3.70;;
69854;SDS011;57146;48.140;16.304;2022-12-18T01:26:15;11.32;;;3.90;;
69854;SDS011;57146;48.140;16.304;2022-12-18T01:28:42;10.32;;;3.53;;
69854;SDS011;57146;48.140;16.304;2022-12-18T01:31:20;10.73;;;3.10;;
69854;SDS011;57146;48.140;16.304;2022-12-18T01:33:53;10.80;;;3.20;;
69854;SDS011;57146;48.140;16.304;2022-12-18T01:36:22;13.25;;;3.38;;
69854;SDS011;57146;48.140;16.304;2022-12-18T01:38:54;10.98;;;3.10;;
69854;SDS011;57146;48.140;16.304;2022-12-18T01:41:23;10.35;;;3.10;;
69854;SDS011;57146;48.140;16.304;2022-12-18T01:43:54;10.63;;;2.97;;
69854;SDS011;57146;48.140;16.304;2022-12-18T01:46:23;9.15;;;3.10;;
69854;SDS011;57146;48.140;16.304;2022-12-18T01:48:58;9.85;;;2.83;;
69854;SDS011;57146;48.140;16.304;2022-12-18T01:51:27;11.73;;;3.10;;
69854;SDS011;57146;48.140;16.304;2022-12-18T01:53:57;9.20;;;2.85;;
69854;SDS011;57146;48.140;16.304;2022-12-18T01:56:26;9.03;;;2.97;;
69854;SDS011;57146;48.140;16.304;2022-12-18T01:59:11;9.75;;;3.22;;
69854;SDS011;57146;48.140;16.304;2022-12-18T02:01:40;9.75;;;2.85;;
69854;SDS011;57146;48.140;16.304;2022-12-18T02:04:19;10.82;;;3.22;;
69854;SDS011;57146;48.140;16.304;2022-12-18T02:06:48;11.30;;;3.78;;
69854;SDS011;57146;48.140;16.304;2022-12-18T02:09:24;9.80;;;3.40;;
69854;SDS011;57146;48.140;16.304;2022-12-18T02:12:11;11.07;;;3.60;;
69854;SDS011;57146;48.140;16.304;2022-12-18T02:25:23;14.43;;;4.85;;
69854;SDS011;57146;48.140;16.304;2022-12-18T02:27:52;14.82;;;5.10;;
69854;SDS011;57146;48.140;16.304;2022-12-18T02:30:23;16.13;;;4.50;;
69854;SDS011;57146;48.140;16.304;2022-12-18T02:32:50;16.42;;;4.80;;
69854;SDS011;57146;48.140;16.304;2022-12-18T02:35:21;13.33;;;4.23;;
69854;SDS011;57146;48.140;16.304;2022-12-18T02:37:53;14.88;;;4.72;;
69854;SDS011;57146;48.140;16.304;2022-12-18T02:40:22;15.20;;;4.80;;
69854;SDS011;57146;48.140;16.304;2022-12-18T02:42:51;15.88;;;5.07;;
69854;SDS011;57146;48.140;16.304;2022-12-18T02:45:19;16.55;;;5.35;;
69854;SDS011;57146;48.140;16.304;2022-12-18T02:47:48;15.20;;;5.03;;
69854;SDS011;57146;48.140;16.304;2022-12-18T02:50:26;17.35;;;5.68;;
69854;SDS011;57146;48.140;16.304;2022-12-18T03:00:53;11.97;;;4.50;;
69854;SDS011;57146;48.140;16.304;2022-12-18T03:03:31;15.35;;;4.03;;
69854;SDS011;57146;48.140;16.304;2022-12-18T03:06:06;11.70;;;3.70;;
69854;SDS011;57146;48.140;16.304;2022-12-18T03:08:47;13.07;;;3.70;;
69854;SDS011;57146;48.140;16.304;2022-12-18T03:11:18;12.00;;;3.70;;
69854;SDS011;57146;48.140;16.304;2022-12-18T03:13:48;10.97;;;3.50;;
69854;SDS011;57146;48.140;16.304;2022-12-18T03:16:26;10.07;;;3.70;;
69854;SDS011;57146;48.140;16.304;2022-12-18T03:18:56;12.63;;;3.78;;
69854;SDS011;57146;48.140;16.304;2022-12-18T03:21:29;12.27;;;3.67;;
69854;SDS011;57146;48.140;16.304;2022-12-18T03:24:03;12.20;;;3.95;;
69854;SDS011;57146;48.140;16.304;2022-12-18T03:26:36;11.77;;;3.63;;
69854;SDS011;57146;48.140;16.304;2022-12-18T03:29:09;12.32;;;3.72;;
69854;SDS011;57146;48.140;16.304;2022-12-18T03:31:51;13.80;;;3.90;;
69854;SDS011;57146;48.140;16.304;2022-12-18T03:34:32;12.75;;;4.18;;
69854;SDS011;57146;48.140;16.304;2022-12-18T03:37:05;14.75;;;4.22;;
69854;SDS011;57146;48.140;16.304;2022-12-18T03:39:35;15.57;;;4.93;;
69854;SDS011;57146;48.140;16.304;2022-12-18T03:45:13;16.45;;;5.00;;
69854;SDS011;57146;48.140;16.304;2022-12-18T03:50:36;17.30;;;5.22;;
69854;SDS011;57146;48.140;16.304;2022-12-18T03:56:11;15.23;;;4.75;;
69854;SDS011;57146;48.140;16.304;2022-12-18T03:58:40;14.88;;;4.60;;
69854;SDS011;57146;48.140;16.304;2022-12-18T04:01:17;14.27;;;4.68;;
69854;SDS011;57146;48.140;16.304;2022-12-18T04:03:47;16.65;;;4.60;;
69854;SDS011;57146;48.140;16.304;2022-12-18T04:06:18;15.73;;;5.13;;
69854;SDS011;57146;48.140;16.304;2022-12-18T04:08:46;17.70;;;5.85;;
69854;SDS011;57146;48.140;16.304;2022-12-18T04:11:18;20.02;;;5.78;;
69854;SDS011;57146;48.140;16.304;2022-12-18T04:13:46;18.42;;;6.25;;
69854;SDS011;57146;48.140;16.304;2022-12-18T04:16:19;17.33;;;5.72;;
69854;SDS011;57146;48.140;16.304;2022-12-18T04:18:50;19.63;;;5.97;;
69854;SDS011;57146;48.140;16.304;2022-12-18T04:21:18;18.63;;;5.40;;
69854;SDS011;57146;48.140;16.304;2022-12-18T04:23:47;19.48;;;5.65;;
69854;SDS011;57146;48.140;16.304;2022-12-18T04:26:16;19.25;;;6.05;;
69854;SDS011;57146;48.140;16.304;2022-12-18T04:28:52;16.50;;;5.30;;
69854;SDS011;57146;48.140;16.304;2022-12-18T04:31:20;18.67;;;5.57;;
69854;SDS011;57146;48.140;16.304;2022-12-18T04:33:48;19.45;;;5.88;;
69854;SDS011;57146;48.140;16.304;2022-12-18T04:36:15;18.20;;;6.15;;
69854;SDS011;57146;48.140;16.304;2022-12-18T04:38:44;19.38;;;5.45;;
69854;SDS011;57146;48.140;16.304;2022-12-18T04:41:14;16.85;;;5.50;;
69854;SDS011;57146;48.140;16.304;2022-12-18T04:43:43;17.03;;;5.20;;
69854;SDS011;57146;48.140;16.304;2022-12-18T04:46:09;16.52;;;5.57;;
69854;SDS011;57146;48.140;16.304;2022-12-18T04:48:37;19.38;;;5.97;;
69854;SDS011;57146;48.140;16.304;2022-12-18T04:51:05;17.15;;;5.35;;
69854;SDS011;57146;48.140;16.304;2022-12-18T04:53:33;16.30;;;5.25;;
69854;SDS011;57146;48.140;16.304;2022-12-18T04:56:07;18.47;;;5.67;;
69854;SDS011;57146;48.140;16.304;2022-12-18T04:58:38;17.83;;;5.50;;
69854;SDS011;57146;48.140;16.304;2022-12-18T05:01:07;16.45;;;5.53;;
69854;SDS011;57146;48.140;16.304;2022-12-18T05:03:35;18.33;;;5.63;;
69854;SDS011;57146;48.140;16.304;2022-12-18T05:06:03;18.75;;;5.82;;
69854;SDS011;57146;48.140;16.304;2022-12-18T05:08:31;16.13;;;5.07;;
69854;SDS011;57146;48.140;16.304;2022-12-18T05:11:05;17.15;;;5.50;;
69854;SDS011;57146;48.140;16.304;2022-12-18T05:13:36;18.33;;;5.30;;
69854;SDS011;57146;48.140;16.304;2022-12-18T05:16:04;18.30;;;5.40;;
69854;SDS011;57146;48.140;16.304;2022-12-18T05:18:32;18.20;;;5.85;;
69854;SDS011;57146;48.140;16.304;2022-12-18T05:21:00;20.13;;;5.57;;
69854;SDS011;57146;48.140;16.304;2022-12-18T05:23:27;15.30;;;4.80;;
69854;SDS011;57146;48.140;16.304;2022-12-18T05:25:58;18.13;;;5.80;;
69854;SDS011;57146;48.140;16.304;2022-12-18T05:28:28;17.45;;;5.38;;
69854;SDS011;57146;48.140;16.304;2022-12-18T05:30:58;18.20;;;5.50;;
69854;SDS011;57146;48.140;16.304;2022-12-18T05:33:28;17.17;;;5.57;;
69854;SDS011;57146;48.140;16.304;2022-12-18T05:35:58;17.70;;;5.55;;
69854;SDS011;57146;48.140;16.304;2022-12-18T05:38:27;21.38;;;5.72;;
69854;SDS011;57146;48.140;16.304;2022-12-18T05:40:55;17.45;;;5.40;;
69854;SDS011;57146;48.140;16.304;2022-12-18T05:43:23;17.70;;;5.35;;
69854;SDS011;57146;48.140;16.304;2022-12-18T05:45:53;22.60;;;6.97;;
69854;SDS011;57146;48.140;16.304;2022-12-18T05:48:21;17.73;;;6.22;;
69854;SDS011;57146;48.140;16.304;2022-12-18T05:50:48;20.25;;;6.10;;
69854;SDS011;57146;48.140;16.304;2022-12-18T05:53:17;17.92;;;5.32;;
69854;SDS011;57146;48.140;16.304;2022-12-18T05:55:46;17.67;;;5.72;;
69854;SDS011;57146;48.140;16.304;2022-12-18T05:58:14;17.23;;;5.60;;
69854;SDS011;57146;48.140;16.304;2022-12-18T06:00:43;18.58;;;5.75;;
69854;SDS011;57146;48.140;16.304;2022-12-18T06:03:12;18.25;;;5.97;;
69854;SDS011;57146;48.140;16.304;2022-12-18T06:05:41;18.25;;;6.00;;
69854;SDS011;57146;48.140;16.304;2022-12-18T06:08:10;19.85;;;5.82;;
69854;SDS011;57146;48.140;16.304;2022-12-18T06:10:38;18.87;;;5.77;;
69854;SDS011;57146;48.140;16.304;2022-12-18T06:13:06;17.67;;;5.57;;
69854;SDS011;57146;48.140;16.304;2022-12-18T06:15:36;18.67;;;5.68;;
69854;SDS011;57146;48.140;16.304;2022-12-18T06:18:03;19.00;;;6.05;;
69854;SDS011;57146;48.140;16.304;2022-12-18T06:20:30;17.02;;;5.40;;
69854;SDS011;57146;48.140;16.304;2022-12-18T06:22:59;17.20;;;5.47;;
69854;SDS011;57146;48.140;16.304;2022-12-18T06:25:26;18.83;;;5.82;;
69854;SDS011;57146;48.140;16.304;2022-12-18T06:27:53;17.52;;;5.63;;
69854;SDS011;57146;48.140;16.304;2022-12-18T06:30:20;19.70;;;6.25;;
69854;SDS011;57146;48.140;16.304;2022-12-18T06:32:50;20.25;;;6.40;;
69854;SDS011;57146;48.140;16.304;2022-12-18T06:35:22;20.23;;;6.17;;
69854;SDS011;57146;48.140;16.304;2022-12-18T06:37:49;18.75;;;6.03;;
69854;SDS011;57146;48.140;16.304;2022-12-18T06:40:16;19.77;;;5.90;;
69854;SDS011;57146;48.140;16.304;2022-12-18T06:42:43;17.50;;;5.90;;
69854;SDS011;57146;48.140;16.304;2022-12-18T06:45:10;18.13;;;6.10;;
69854;SDS011;57146;48.140;16.304;2022-12-18T06:47:40;19.87;;;5.83;;
69854;SDS011;57146;48.140;16.304;2022-12-18T06:50:07;20.90;;;6.35;;
69854;SDS011;57146;48.140;16.304;2022-12-18T06:52:34;20.33;;;5.70;;
69854;SDS011;57146;48.140;16.304;2022-12-18T06:55:01;18.77;;;5.93;;
69854;SDS011;57146;48.140;16.304;2022-12-18T06:57:28;17.83;;;5.82;;
69854;SDS011;57146;48.140;16.304;2022-12-18T06:59:55;21.80;;;6.93;;
69854;SDS011;57146;48.140;16.304;2022-12-18T07:02:22;18.63;;;6.32;;
69854;SDS011;57146;48.140;16.304;2022-12-18T07:04:48;19.65;;;6.60;;
69854;SDS011;57146;48.140;16.304;2022-12-18T07:07:15;18.55;;;6.32;;
69854;SDS011;57146;48.140;16.304;2022-12-18T07:09:43;18.65;;;6.07;;
69854;SDS011;57146;48.140;16.304;2022-12-18T07:12:09;18.87;;;5.80;;
69854;SDS011;57146;48.140;16.304;2022-12-18T07:14:36;17.85;;;6.03;;
69854;SDS011;57146;48.140;16.304;2022-12-18T07:17:03;20.92;;;5.97;;
69854;SDS011;57146;48.140;16.304;2022-12-18T07:19:31;18.15;;;6.00;;
69854;SDS011;57146;48.140;16.304;2022-12-18T07:21:58;19.20;;;6.40;;
69854;SDS011;57146;48.140;16.304;2022-12-18T07:24:25;20.83;;;6.73;;
69854;SDS011;57146;48.140;16.304;2022-12-18T07:26:52;20.83;;;6.78;;
69854;SDS011;57146;48.140;16.304;2022-12-18T07:29:19;21.42;;;6.35;;
69854;SDS011;57146;48.140;16.304;2022-12-18T07:31:47;18.48;;;6.03;;
69854;SDS011;57146;48.140;16.304;2022-12-18T07:34:14;17.83;;;6.05;;
69854;SDS011;57146;48.140;16.304;2022-12-18T07:36:41;20.33;;;6.27;;
69854;SDS011;57146;48.140;16.304;2022-12-18T07:39:10;23.92;;;7.18;;
69854;SDS011;57146;48.140;16.304;2022-12-18T07:41:37;21.38;;;6.75;;
69854;SDS011;57146;48.140;16.304;2022-12-18T07:44:14;22.98;;;7.60;;
69854;SDS011;57146;48.140;16.304;2022-12-18T07:46:41;24.25;;;7.78;;
69854;SDS011;57146;48.140;16.304;2022-12-18T07:49:08;22.10;;;7.27;;
69854;SDS011;57146;48.140;16.304;2022-12-18T07:51:35;21.50;;;7.20;;
69854;SDS011;57146;48.140;16.304;2022-12-18T07:54:02;19.35;;;6.45;;
69854;SDS011;57146;48.140;16.304;2022-12-18T07:56:28;19.58;;;6.50;;
69854;SDS011;57146;48.140;16.304;2022-12-18T07:58:57;18.98;;;6.05;;
69854;SDS011;57146;48.140;16.304;2022-12-18T08:01:28;16.67;;;6.33;;
69854;SDS011;57146;48.140;16.304;2022-12-18T08:03:56;18.85;;;6.30;;
69854;SDS011;57146;48.140;16.304;2022-12-18T08:06:23;18.92;;;6.13;;
69854;SDS011;57146;48.140;16.304;2022-12-18T08:08:53;18.60;;;6.05;;
69854;SDS011;57146;48.140;16.304;2022-12-18T08:11:22;19.27;;;7.03;;
69854;SDS011;57146;48.140;16.304;2022-12-18T08:13:50;20.23;;;6.60;;
69854;SDS011;57146;48.140;16.304;2022-12-18T08:16:17;25.08;;;6.85;;
69854;SDS011;57146;48.140;16.304;2022-12-18T08:18:46;18.85;;;6.45;;
69854;SDS011;57146;48.140;16.304;2022-12-18T08:21:13;17.85;;;6.45;;
69854;SDS011;57146;48.140;16.304;2022-12-18T08:23:42;20.50;;;6.70;;
69854;SDS011;57146;48.140;16.304;2022-12-18T08:26:13;20.40;;;6.80;;
69854;SDS011;57146;48.140;16.304;2022-12-18T08:28:40;22.63;;;7.45;;
69854;SDS011;57146;48.140;16.304;2022-12-18T08:31:07;22.85;;;7.78;;
69854;SDS011;57146;48.140;16.304;2022-12-18T08:33:35;22.90;;;7.80;;
69854;SDS011;57146;48.140;16.304;2022-12-18T08:36:04;23.35;;;7.30;;
69854;SDS011;57146;48.140;16.304;2022-12-18T08:38:32;23.10;;;7.30;;
69854;SDS011;57146;48.140;16.304;2022-12-18T08:40:59;21.98;;;7.47;;
69854;SDS011;57146;48.140;16.304;2022-12-18T08:43:27;23.90;;;7.53;;
69854;SDS011;57146;48.140;16.304;2022-12-18T08:45:54;22.77;;;7.30;;
69854;SDS011;57146;48.140;16.304;2022-12-18T08:48:21;22.23;;;7.22;;
69854;SDS011;57146;48.140;16.304;2022-12-18T08:50:55;24.73;;;7.57;;
69854;SDS011;57146;48.140;16.304;2022-12-18T08:53:24;22.23;;;7.32;;
69854;SDS011;57146;48.140;16.304;2022-12-18T08:55:58;21.60;;;7.28;;
69854;SDS011;57146;48.140;16.304;2022-12-18T08:58:25;20.38;;;7.10;;
69854;SDS011;57146;48.140;16.304;2022-12-18T09:00:52;21.95;;;7.57;;
69854;SDS011;57146;48.140;16.304;2022-12-18T09:03:19;22.90;;;7.67;;
69854;SDS011;57146;48.140;16.304;2022-12-18T09:05:46;27.17;;;8.15;;
69854;SDS011;57146;48.140;16.304;2022-12-18T09:08:13;25.90;;;8.52;;
69854;SDS011;57146;48.140;16.304;2022-12-18T09:10:43;28.13;;;8.85;;
69854;SDS011;57146;48.140;16.304;2022-12-18T09:13:11;28.20;;;9.05;;
69854;SDS011;57146;48.140;16.304;2022-12-18T09:18:09;25.27;;;8.25;;
69854;SDS011;57146;48.140;16.304;2022-12-18T09:20:36;27.02;;;9.05;;
69854;SDS011;57146;48.140;16.304;2022-12-18T09:23:04;22.77;;;8.48;;
69854;SDS011;57146;48.140;16.304;2022-12-18T09:25:32;25.13;;;8.70;;
69854;SDS011;57146;48.140;16.304;2022-12-18T09:27:59;27.87;;;9.43;;
69854;SDS011;57146;48.140;16.304;2022-12-18T09:30:27;30.00;;;10.20;;
69854;SDS011;57146;48.140;16.304;2022-12-18T09:32:54;25.20;;;9.15;;
69854;SDS011;57146;48.140;16.304;2022-12-18T09:35:21;28.45;;;10.20;;
69854;SDS011;57146;48.140;16.304;2022-12-18T09:37:48;31.85;;;10.35;;
69854;SDS011;57146;48.140;16.304;2022-12-18T09:40:18;31.67;;;10.47;;
69854;SDS011;57146;48.140;16.304;2022-12-18T09:42:51;33.58;;;10.68;;
69854;SDS011;57146;48.140;16.304;2022-12-18T09:45:21;30.77;;;10.48;;
69854;SDS011;57146;48.140;16.304;2022-12-18T09:47:49;31.52;;;10.82;;
69854;SDS011;57146;48.140;16.304;2022-12-18T09:50:26;29.02;;;9.82;;
69854;SDS011;57146;48.140;16.304;2022-12-18T09:53:12;30.33;;;9.93;;
69854;SDS011;57146;48.140;16.304;2022-12-18T09:55:45;29.00;;;10.18;;
69854;SDS011;57146;48.140;16.304;2022-12-18T10:00:53;33.63;;;9.85;;
69854;SDS011;57146;48.140;16.304;2022-12-18T10:03:21;28.40;;;9.48;;
69854;SDS011;57146;48.140;16.304;2022-12-18T10:14:10;34.35;;;10.63;;
69854;SDS011;57146;48.140;16.304;2022-12-18T10:17:07;35.65;;;10.32;;
69854;SDS011;57146;48.140;16.304;2022-12-18T10:19:52;31.63;;;10.10;;
69854;SDS011;57146;48.140;16.304;2022-12-18T10:22:39;31.92;;;9.95;;
69854;SDS011;57146;48.140;16.304;2022-12-18T10:25:21;34.85;;;10.13;;
69854;SDS011;57146;48.140;16.304;2022-12-18T10:27:56;34.08;;;9.13;;
69854;SDS011;57146;48.140;16.304;2022-12-18T10:30:26;27.70;;;8.63;;
69854;SDS011;57146;48.140;16.304;2022-12-18T10:32:53;30.83;;;8.90;;
69854;SDS011;57146;48.140;16.304;2022-12-18T10:35:21;27.95;;;8.63;;
69854;SDS011;57146;48.140;16.304;2022-12-18T10:40:29;25.40;;;8.13;;
69854;SDS011;57146;48.140;16.304;2022-12-18T10:43:03;29.70;;;9.55;;
69854;SDS011;57146;48.140;16.304;2022-12-18T10:45:31;27.03;;;8.53;;
69854;SDS011;57146;48.140;16.304;2022-12-18T10:47:58;31.08;;;8.93;;
69854;SDS011;57146;48.140;16.304;2022-12-18T10:50:29;27.58;;;8.60;;
69854;SDS011;57146;48.140;16.304;2022-12-18T10:53:20;28.80;;;8.05;;
69854;SDS011;57146;48.140;16.304;2022-12-18T10:55:50;25.95;;;8.48;;
69854;SDS011;57146;48.140;16.304;2022-12-18T11:01:15;30.77;;;9.60;;
69854;SDS011;57146;48.140;16.304;2022-12-18T11:04:04;28.73;;;9.15;;
69854;SDS011;57146;48.140;16.304;2022-12-18T11:06:35;29.52;;;9.10;;
69854;SDS011;57146;48.140;16.304;2022-12-18T11:09:20;32.00;;;9.73;;
69854;SDS011;57146;48.140;16.304;2022-12-18T11:11:49;31.80;;;9.63;;
69854;SDS011;57146;48.140;16.304;2022-12-18T11:14:25;34.53;;;10.63;;
69854;SDS011;57146;48.140;16.304;2022-12-18T11:17:20;32.05;;;9.80;;
69854;SDS011;57146;48.140;16.304;2022-12-18T11:20:01;31.38;;;9.60;;
69854;SDS011;57146;48.140;16.304;2022-12-18T11:22:32;30.30;;;10.18;;
69854;SDS011;57146;48.140;16.304;2022-12-18T11:25:05;32.10;;;10.50;;
69854;SDS011;57146;48.140;16.304;2022-12-18T11:27:54;31.35;;;10.00;;
69854;SDS011;57146;48.140;16.304;2022-12-18T11:30:24;33.65;;;10.57;;
69854;SDS011;57146;48.140;16.304;2022-12-18T11:32:56;30.77;;;9.15;;
69854;SDS011;57146;48.140;16.304;2022-12-18T11:37:54;29.30;;;9.23;;
69854;SDS011;57146;48.140;16.304;2022-12-18T11:40:36;32.10;;;10.00;;
69854;SDS011;57146;48.140;16.304;2022-12-18T11:43:09;29.30;;;9.52;;
69854;SDS011;57146;48.140;16.304;2022-12-18T11:45:43;31.77;;;10.10;;
69854;SDS011;57146;48.140;16.304;2022-12-18T11:50:55;29.03;;;8.93;;
69854;SDS011;57146;48.140;16.304;2022-12-18T11:53:24;30.35;;;9.20;;
69854;SDS011;57146;48.140;16.304;2022-12-18T12:01:15;33.08;;;9.82;;
69854;SDS011;57146;48.140;16.304;2022-12-18T12:06:37;31.67;;;9.70;;
69854;SDS011;57146;48.140;16.304;2022-12-18T12:10:12;28.98;;;9.10;;
69854;SDS011;57146;48.140;16.304;2022-12-18T12:20:51;30.70;;;9.27;;
69854;SDS011;57146;48.140;16.304;2022-12-18T12:25:56;29.73;;;9.05;;
69854;SDS011;57146;48.140;16.304;2022-12-18T12:34:01;31.83;;;10.40;;
69854;SDS011;57146;48.140;16.304;2022-12-18T12:39:06;32.80;;;9.98;;
69854;SDS011;57146;48.140;16.304;2022-12-18T12:41:38;34.22;;;10.40;;
69854;SDS011;57146;48.140;16.304;2022-12-18T12:44:08;31.57;;;9.87;;
69854;SDS011;57146;48.140;16.304;2022-12-18T12:46:43;31.48;;;9.65;;
69854;SDS011;57146;48.140;16.304;2022-12-18T12:49:11;32.53;;;10.00;;
69854;SDS011;57146;48.140;16.304;2022-12-18T12:51:43;31.55;;;9.45;;
69854;SDS011;57146;48.140;16.304;2022-12-18T12:54:19;35.63;;;10.35;;
69854;SDS011;57146;48.140;16.304;2022-12-18T12:59:52;32.50;;;9.88;;
69854;SDS011;57146;48.140;16.304;2022-12-18T13:02:44;32.38;;;9.55;;
69854;SDS011;57146;48.140;16.304;2022-12-18T13:08:08;31.55;;;10.02;;
69854;SDS011;57146;48.140;16.304;2022-12-18T13:10:38;32.83;;;9.80;;
69854;SDS011;57146;48.140;16.304;2022-12-18T13:15:42;31.05;;;9.27;;
69854;SDS011;57146;48.140;16.304;2022-12-18T13:18:22;31.88;;;9.63;;
69854;SDS011;57146;48.140;16.304;2022-12-18T13:20:51;30.35;;;9.65;;
69854;SDS011;57146;48.140;16.304;2022-12-18T13:23:39;32.23;;;10.40;;
69854;SDS011;57146;48.140;16.304;2022-12-18T13:31:14;29.27;;;9.43;;
69854;SDS011;57146;48.140;16.304;2022-12-18T13:34:20;34.03;;;10.07;;
69854;SDS011;57146;48.140;16.304;2022-12-18T13:36:54;31.40;;;10.20;;
69854;SDS011;57146;48.140;16.304;2022-12-18T13:39:23;30.20;;;8.90;;
69854;SDS011;57146;48.140;16.304;2022-12-18T13:44:34;30.05;;;9.00;;
69854;SDS011;57146;48.140;16.304;2022-12-18T13:49:57;29.97;;;9.37;;
69854;SDS011;57146;48.140;16.304;2022-12-18T13:52:25;30.77;;;9.40;;
69854;SDS011;57146;48.140;16.304;2022-12-18T13:54:55;27.70;;;9.02;;
69854;SDS011;57146;48.140;16.304;2022-12-18T13:59:56;28.95;;;10.13;;
69854;SDS011;57146;48.140;16.304;2022-12-18T14:02:24;32.23;;;9.67;;
69854;SDS011;57146;48.140;16.304;2022-12-18T14:04:54;30.88;;;9.40;;
69854;SDS011;57146;48.140;16.304;2022-12-18T14:07:25;27.30;;;8.70;;
69854;SDS011;57146;48.140;16.304;2022-12-18T14:10:03;30.20;;;9.15;;
69854;SDS011;57146;48.140;16.304;2022-12-18T14:12:50;26.85;;;7.97;;
69854;SDS011;57146;48.140;16.304;2022-12-18T14:15:38;31.80;;;8.87;;
69854;SDS011;57146;48.140;16.304;2022-12-18T14:20:58;34.60;;;9.88;;
69854;SDS011;57146;48.140;16.304;2022-12-18T14:23:37;29.70;;;9.13;;
69854;SDS011;57146;48.140;16.304;2022-12-18T14:26:25;32.03;;;10.55;;
69854;SDS011;57146;48.140;16.304;2022-12-18T14:28:54;36.33;;;11.90;;
69854;SDS011;57146;48.140;16.304;2022-12-18T14:31:42;34.05;;;11.07;;
69854;SDS011;57146;48.140;16.304;2022-12-18T14:34:16;38.53;;;11.75;;
69854;SDS011;57146;48.140;16.304;2022-12-18T14:36:51;37.05;;;11.02;;
69854;SDS011;57146;48.140;16.304;2022-12-18T14:39:19;33.65;;;10.65;;
69854;SDS011;57146;48.140;16.304;2022-12-18T14:41:48;32.00;;;10.20;;
69854;SDS011;57146;48.140;16.304;2022-12-18T14:44:15;32.83;;;11.13;;
69854;SDS011;57146;48.140;16.304;2022-12-18T14:46:42;36.45;;;10.55;;
69854;SDS011;57146;48.140;16.304;2022-12-18T14:51:48;36.40;;;11.02;;
69854;SDS011;57146;48.140;16.304;2022-12-18T14:54:18;35.70;;;11.37;;
69854;SDS011;57146;48.140;16.304;2022-12-18T14:56:51;38.72;;;11.35;;
69854;SDS011;57146;48.140;16.304;2022-12-18T14:59:26;38.00;;;11.73;;
69854;SDS011;57146;48.140;16.304;2022-12-18T15:04:41;41.22;;;11.75;;
69854;SDS011;57146;48.140;16.304;2022-12-18T15:07:13;42.87;;;12.13;;
69854;SDS011;57146;48.140;16.304;2022-12-18T15:09:44;37.67;;;11.18;;
69854;SDS011;57146;48.140;16.304;2022-12-18T15:12:41;39.80;;;12.35;;
69854;SDS011;57146;48.140;16.304;2022-12-18T15:23:21;40.47;;;12.23;;
69854;SDS011;57146;48.140;16.304;2022-12-18T15:26:16;42.08;;;12.07;;
69854;SDS011;57146;48.140;16.304;2022-12-18T15:28:49;39.78;;;12.00;;
69854;SDS011;57146;48.140;16.304;2022-12-18T15:34:08;38.93;;;11.70;;
69854;SDS011;57146;48.140;16.304;2022-12-18T15:36:39;45.10;;;12.20;;
69854;SDS011;57146;48.140;16.304;2022-12-18T15:39:09;45.30;;;14.05;;
69854;SDS011;57146;48.140;16.304;2022-12-18T15:41:38;40.45;;;12.48;;
69854;SDS011;57146;48.140;16.304;2022-12-18T15:44:22;43.45;;;12.73;;
69854;SDS011;57146;48.140;16.304;2022-12-18T15:46:51;42.47;;;12.23;;
69854;SDS011;57146;48.140;16.304;2022-12-18T15:49:19;37.53;;;11.13;;
69854;SDS011;57146;48.140;16.304;2022-12-18T15:51:51;40.85;;;12.02;;
69854;SDS011;57146;48.140;16.304;2022-12-18T15:54:22;37.80;;;11.85;;
69854;SDS011;57146;48.140;16.304;2022-12-18T15:56:49;38.25;;;11.38;;
69854;SDS011;57146;48.140;16.304;2022-12-18T15:59:17;37.73;;;11.70;;
69854;SDS011;57146;48.140;16.304;2022-12-18T16:01:47;38.08;;;10.68;;
69854;SDS011;57146;48.140;16.304;2022-12-18T16:04:17;38.20;;;10.90;;
69854;SDS011;57146;48.140;16.304;2022-12-18T16:06:47;34.38;;;10.15;;
69854;SDS011;57146;48.140;16.304;2022-12-18T16:09:36;36.72;;;10.90;;
69854;SDS011;57146;48.140;16.304;2022-12-18T16:12:06;34.87;;;11.20;;
69854;SDS011;57146;48.140;16.304;2022-12-18T16:14:50;35.00;;;10.10;;
69854;SDS011;57146;48.140;16.304;2022-12-18T16:17:19;30.80;;;9.68;;
69854;SDS011;57146;48.140;16.304;2022-12-18T16:19:46;30.67;;;9.63;;
69854;SDS011;57146;48.140;16.304;2022-12-18T16:22:23;31.02;;;9.48;;
69854;SDS011;57146;48.140;16.304;2022-12-18T16:24:53;34.07;;;10.57;;
69854;SDS011;57146;48.140;16.304;2022-12-18T16:27:22;35.25;;;10.30;;
69854;SDS011;57146;48.140;16.304;2022-12-18T16:29:51;30.33;;;9.10;;
69854;SDS011;57146;48.140;16.304;2022-12-18T16:32:22;30.40;;;9.25;;
69854;SDS011;57146;48.140;16.304;2022-12-18T16:34:52;33.13;;;9.68;;
69854;SDS011;57146;48.140;16.304;2022-12-18T16:37:20;30.53;;;9.13;;
69854;SDS011;57146;48.140;16.304;2022-12-18T16:39:49;32.22;;;9.45;;
69854;SDS011;57146;48.140;16.304;2022-12-18T16:42:18;29.95;;;9.07;;